Time;durP1;ratioP1;P1;durP2;ratioP2;P2;SDS_P1;SDS_P2;PMS_P1;PMS_P2;Temp;Humidity;BMP_temperature;BMP_pressure;BME280_temperature;BME280_humidity;BME280_pressure;Samples;Min_cycle;Max_cycle;Signal;HPM_P1;HPM_P2
2022/03/01 00:01:35;;;;;;;21.65;9.18;;;;;;;0.00;nan;96361.03;10565816;28;20425;-70
2022/03/01 00:06:37;;;;;;;23.38;8.95;;;;;;;-0.05;nan;96337.06;10565817;28;20168;-69
2022/03/01 00:11:39;;;;;;;27.30;9.52;;;;;;;-0.04;nan;96347.31;10564504;28;20048;-70
2022/03/01 00:16:40;;;;;;;28.70;8.77;;;;;;;-0.01;nan;96351.59;10566299;28;20050;-69
2022/03/01 00:21:42;;;;;;;25.17;8.20;;;;;;;0.07;nan;96385.78;10565237;28;20616;-70
2022/03/01 00:26:44;;;;;;;23.60;8.45;;;;;;;0.09;nan;96396.91;10565607;28;20040;-70
2022/03/01 00:31:45;;;;;;;24.92;9.45;;;;;;;0.16;nan;96426.81;10562867;28;20059;-70
2022/03/01 00:36:47;;;;;;;22.80;7.82;;;;;;;0.19;nan;96435.38;10565420;28;20397;-70
2022/03/01 00:41:49;;;;;;;23.20;7.43;;;;;;;0.10;nan;96406.31;10563511;28;20086;-69
2022/03/01 00:46:51;;;;;;;21.27;7.80;;;;;;;0.08;nan;96399.50;10564749;28;20075;-69
2022/03/01 00:51:52;;;;;;;20.77;7.47;;;;;;;0.10;nan;96405.47;10563396;28;20094;-69
2022/03/01 00:56:54;;;;;;;19.30;7.00;;;;;;;0.11;nan;96413.16;10564483;28;20043;-69
2022/03/01 01:01:55;;;;;;;18.75;7.65;;;;;;;0.16;nan;96431.13;10564249;28;20075;-70
2022/03/01 01:06:57;;;;;;;20.80;7.53;;;;;;;0.10;nan;96414.03;10563858;28;20527;-70
2022/03/01 01:11:59;;;;;;;22.83;8.38;;;;;;;0.08;nan;96407.22;10563167;28;20051;-69
2022/03/01 01:17:01;;;;;;;22.00;7.85;;;;;;;0.04;nan;96380.66;10563544;28;20044;-70
2022/03/01 01:27:23;;;;;;;20.90;7.78;;;;;;;0.10;nan;96415.75;10557036;28;20046;-69
2022/03/01 01:32:25;;;;;;;19.52;6.00;;;;;;;0.08;nan;96402.91;10555646;28;20052;-69
2022/03/01 01:37:26;;;;;;;17.40;6.28;;;;;;;0.09;nan;96417.50;10563590;28;20062;-70
2022/03/01 01:42:28;;;;;;;19.48;7.40;;;;;;;0.03;nan;96386.69;10562953;28;20110;-69
2022/03/01 01:47:30;;;;;;;23.83;7.38;;;;;;;-0.04;nan;96367.06;10570859;28;20048;-69
2022/03/01 01:52:32;;;;;;;21.98;7.28;;;;;;;-0.09;nan;96340.53;10569657;27;20046;-69
2022/03/01 01:57:33;;;;;;;23.20;6.80;;;;;;;;;;10571043;28;20475;-69
2022/03/01 02:02:35;;;;;;;19.10;6.93;;;;;;;;;;10569294;28;20040;-70
2022/03/01 02:07:36;;;;;;;22.25;7.85;;;;;;;;;;10570089;28;20059;-70
2022/03/01 02:12:38;;;;;;;20.60;7.10;;;;;;;;;;10569601;28;20051;-70
2022/03/01 02:17:40;;;;;;;17.83;7.15;;;;;;;;;;10570553;28;20124;-70
2022/03/01 02:22:42;;;;;;;25.75;7.50;;;;;;;;;;10569063;28;20098;-70
2022/03/01 02:27:43;;;;;;;24.05;7.60;;;;;;;;;;10570434;28;20052;-70
2022/03/01 02:32:45;;;;;;;24.88;6.82;;;;;;;;;;10568833;27;20070;-70
2022/03/01 02:37:46;;;;;;;18.95;6.93;;;;;;;;;;10569013;28;20067;-69
2022/03/01 02:42:48;;;;;;;20.33;7.95;;;;;;;;;;10560984;28;20046;-69
2022/03/01 02:47:50;;;;;;;18.23;6.70;;;;;;;;;;10569225;28;20051;-69
2022/03/01 02:52:51;;;;;;;21.67;8.07;;;;;;;;;;10568146;27;20131;-69
2022/03/01 02:57:52;;;;;;;21.40;8.07;;;;;;;;;;10568075;28;20047;-69
2022/03/01 03:02:54;;;;;;;21.25;7.00;;;;;;;;;;10567818;28;20117;-70
2022/03/01 03:07:55;;;;;;;21.77;8.38;;;;;;;;;;10568164;28;20039;-69
2022/03/01 03:12:57;;;;;;;17.92;6.97;;;;;;;;;;10566984;28;20050;-69
2022/03/01 03:17:58;;;;;;;23.95;8.15;;;;;;;;;;10566641;28;20051;-70
2022/03/01 03:23:00;;;;;;;25.50;7.93;;;;;;;;;;10559776;28;20055;-69
2022/03/01 03:28:02;;;;;;;22.73;7.30;;;;;;;;;;10567251;28;20043;-70
2022/03/01 03:33:03;;;;;;;24.48;6.95;;;;;;;;;;10565375;28;20043;-69
2022/03/01 03:38:05;;;;;;;22.13;7.90;;;;;;;;;;10566112;27;20074;-69
2022/03/01 03:43:06;;;;;;;15.38;6.35;;;;;;;;;;10558637;28;20054;-69
2022/03/01 03:48:08;;;;;;;23.15;8.18;;;;;;;;;;10565490;27;20043;-69
2022/03/01 03:53:09;;;;;;;28.33;8.00;;;;;;;;;;10564708;28;20093;-70
2022/03/01 03:58:11;;;;;;;19.25;8.05;;;;;;;;;;10566160;27;20096;-70
2022/03/01 04:03:13;;;;;;;17.65;6.95;;;;;;;;;;10565130;28;20047;-69
2022/03/01 04:08:14;;;;;;;19.20;7.30;;;;;;;;;;10564042;28;20050;-69
2022/03/01 04:13:16;;;;;;;24.17;8.57;;;;;;;;;;10564014;27;20054;-69
2022/03/01 04:18:17;;;;;;;18.02;7.45;;;;;;;;;;10563981;28;20082;-69
2022/03/01 04:23:18;;;;;;;23.45;8.20;;;;;;;;;;10563534;28;20048;-69
2022/03/01 04:28:20;;;;;;;18.08;7.70;;;;;;;;;;10564323;28;20101;-69
2022/03/01 04:33:21;;;;;;;22.02;8.70;;;;;;;;;;10562893;28;20550;-69
2022/03/01 04:38:25;;;;;;;21.08;7.70;;;;;;;;;;10563229;28;20046;-69
2022/03/01 04:43:26;;;;;;;25.73;8.68;;;;;;;;;;10556860;28;20051;-69
2022/03/01 04:48:28;;;;;;;21.58;7.47;;;;;;;;;;10563049;28;20070;-70
2022/03/01 04:53:29;;;;;;;23.50;8.57;;;;;;;;;;10562505;28;20052;-70
2022/03/01 04:58:30;;;;;;;20.23;8.40;;;;;;;;;;10563232;28;20393;-70
2022/03/01 05:03:32;;;;;;;25.90;7.93;;;;;;;;;;10556572;28;20361;-69
2022/03/01 05:08:33;;;;;;;23.80;8.05;;;;;;;;;;10549355;28;20048;-69
2022/03/01 05:13:35;;;;;;;20.98;8.13;;;;;;;;;;10562452;28;20058;-70
2022/03/01 05:18:37;;;;;;;23.95;8.07;;;;;;;;;;10538523;28;20055;-70
2022/03/01 05:23:39;;;;;;;21.65;8.75;;;;;;;;;;10549469;28;20050;-69
2022/03/01 05:28:45;;;;;;;19.88;7.63;;;;;;;;;;10571358;28;20501;-70
2022/03/01 05:33:47;;;;;;;22.38;8.60;;;;;;;;;;10570159;27;20051;-70
2022/03/01 05:38:48;;;;;;;20.52;7.95;;;;;;;;;;10570713;28;20058;-70
2022/03/01 05:43:50;;;;;;;24.42;8.55;;;;;;;;;;10569595;27;20416;-70
2022/03/01 05:48:52;;;;;;;20.45;7.50;;;;;;;;;;10557614;28;20135;-69
2022/03/01 05:53:54;;;;;;;24.95;8.55;;;;;;;;;;10555836;28;20693;-70
2022/03/01 05:58:55;;;;;;;25.83;7.40;;;;;;;;;;10562744;28;20048;-69
2022/03/01 06:03:56;;;;;;;21.50;8.23;;;;;;;;;;10559523;28;20056;-69
2022/03/01 06:08:58;;;;;;;22.35;8.15;;;;;;;;;;10558552;28;20130;-69
2022/03/01 06:13:59;;;;;;;23.92;8.45;;;;;;;;;;10568648;28;20050;-69
2022/03/01 06:19:01;;;;;;;24.48;8.88;;;;;;;;;;10568735;28;20051;-70
2022/03/01 06:24:04;;;;;;;27.30;8.30;;;;;;;;;;10568302;28;20047;-69
2022/03/01 06:29:05;;;;;;;20.15;8.88;;;;;;;;;;10547445;28;20052;-70
2022/03/01 06:34:07;;;;;;;22.63;7.97;;;;;;;;;;10554178;27;20420;-69
2022/03/01 06:39:08;;;;;;;23.58;8.10;;;;;;;;;;10553798;28;20047;-69
2022/03/01 06:44:10;;;;;;;19.52;8.25;;;;;;;;;;10560486;28;20150;-70
2022/03/01 06:49:11;;;;;;;20.17;8.18;;;;;;;;;;10547621;28;20070;-70
2022/03/01 06:54:13;;;;;;;21.38;6.97;;;;;;;;;;10559484;28;20053;-70
2022/03/01 06:59:15;;;;;;;24.30;8.73;;;;;;;;;;10559367;28;20044;-70
2022/03/01 07:04:16;;;;;;;20.40;7.80;;;;;;;;;;10567793;27;20077;-70
2022/03/01 07:09:19;;;;;;;25.33;8.75;;;;;;;;;;10559779;28;20047;-70
2022/03/01 07:14:20;;;;;;;23.27;8.38;;;;;;;;;;10565723;28;20047;-70
2022/03/01 07:19:22;;;;;;;22.67;8.23;;;;;;;;;;10566229;28;20053;-70
2022/03/01 07:24:23;;;;;;;22.80;8.43;;;;;;;;;;10566285;28;20039;-70
2022/03/01 07:29:25;;;;;;;21.33;8.52;;;;;;;;;;10566209;28;20052;-70
2022/03/01 07:34:27;;;;;;;28.27;8.93;;;;;;;;;;10558669;28;20051;-69
2022/03/01 07:39:28;;;;;;;22.35;8.00;;;;;;;;;;10544431;28;20045;-70
2022/03/01 07:44:30;;;;;;;21.30;7.60;;;;;;;;;;10549271;27;20662;-70
2022/03/01 07:49:31;;;;;;;22.80;9.20;;;;;;;;;;10564025;28;20600;-70
2022/03/01 07:54:32;;;;;;;22.65;8.57;;;;;;;;;;10564063;28;20062;-70
2022/03/01 07:59:34;;;;;;;25.58;9.38;;;;;;;;;;10564220;28;20635;-70
2022/03/01 08:04:35;;;;;;;25.38;8.45;;;;;;;;;;10558482;28;20490;-70
2022/03/01 08:09:37;;;;;;;24.90;8.55;;;;;;;;;;10558120;28;20508;-70
2022/03/01 08:14:39;;;;;;;26.17;10.02;;;;;;;;;;10548413;28;20071;-70
2022/03/01 08:19:40;;;;;;;20.33;8.07;;;;;;;;;;10563550;28;20090;-70
2022/03/01 08:24:41;;;;;;;22.67;9.35;;;;;;;;;;10563659;28;20047;-70
2022/03/01 08:29:43;;;;;;;26.15;9.40;;;;;;;;;;10563758;28;20051;-70
2022/03/01 08:34:44;;;;;;;22.35;9.18;;;;;;;2.51;nan;97409.56;10541804;28;20747;-70
2022/03/01 08:39:46;;;;;;;22.23;8.45;;;;;;;;;;10562145;28;20537;-70
2022/03/01 08:44:48;;;;;;;23.38;9.80;;;;;;;3.19;nan;97678.88;10555623;28;20064;-70
2022/03/01 08:49:49;;;;;;;19.23;8.05;;;;;;;3.69;nan;97857.25;10562186;27;20520;-70
2022/03/01 08:54:51;;;;;;;22.30;8.30;;;;;;;3.91;nan;97955.59;10551105;28;20449;-70
2022/03/01 08:59:56;;;;;;;19.45;8.15;;;;;;;4.53;nan;98192.94;10554307;28;20129;-70
2022/03/01 09:04:58;;;;;;;31.05;9.50;;;;;;;5.05;nan;98388.31;10554911;28;20048;-70
2022/03/01 09:10:00;;;;;;;24.40;9.68;;;;;;;5.34;nan;98506.81;10557538;28;20124;-70
2022/03/01 09:15:04;;;;;;;24.83;10.00;;;;;;;5.58;nan;98602.03;10556770;28;20039;-70
2022/03/01 09:20:05;;;;;;;24.73;9.13;;;;;;;6.15;nan;98829.06;10544969;28;20326;-71
2022/03/01 09:25:08;;;;;;;20.60;8.40;;;;;;;6.57;nan;98993.00;10542356;28;20050;-71
2022/03/01 09:30:10;;;;;;;22.55;9.38;;;;;;;6.83;nan;99094.59;10559110;28;20493;-72
2022/03/01 09:35:14;;;;;;;22.02;8.82;;;;;;;6.72;nan;99054.63;10538566;28;20164;-71
2022/03/01 09:40:16;;;;;;;19.02;8.60;;;;;;;6.44;nan;98940.09;10561818;28;20050;-72
2022/03/01 09:45:18;;;;;;;21.45;8.63;;;;;;;7.15;nan;99226.63;10563831;28;20043;-72
2022/03/01 09:50:27;;;;;;;21.02;8.20;;;;;;;7.65;nan;99430.94;10561936;28;20053;-72
2022/03/01 09:55:29;;;;;;;19.42;8.20;;;;;;;7.30;nan;99292.66;10555361;28;20047;-71
2022/03/01 10:00:31;;;;;;;25.50;9.50;;;;;;;7.17;nan;99239.63;10560861;28;20531;-72
2022/03/01 10:05:38;;;;;;;21.27;9.38;;;;;;;7.48;nan;99364.84;10557976;28;20036;-71
2022/03/01 10:10:53;;;;;;;26.85;8.15;;;;;;;7.61;nan;99418.75;10568232;27;20036;-72
2022/03/01 10:16:21;;;;;;;17.83;8.48;;;;;;;7.65;nan;99433.53;10564566;28;20082;-72
2022/03/01 10:21:25;;;;;;;29.42;8.77;;;;;;;7.67;nan;99444.88;10563565;28;20168;-72
2022/03/01 10:26:29;;;;;;;17.60;8.20;;;;;;;7.74;nan;99469.22;10568867;28;20043;-71
2022/03/01 10:31:33;;;;;;;20.27;8.52;;;;;;;7.53;nan;99387.44;10568356;28;20471;-70
2022/03/01 10:36:40;;;;;;;20.38;8.57;;;;;;;7.84;nan;99515.34;10560991;28;20086;-71
2022/03/01 10:41:45;;;;;;;20.75;8.52;;;;;;;8.06;nan;99593.69;10567156;28;20063;-71
2022/03/01 10:46:51;;;;;;;17.23;7.80;;;;;;;8.33;nan;99710.41;10567762;28;20052;-71
2022/03/01 10:51:57;;;;;;;17.85;7.55;;;;;;;8.74;nan;99870.88;10561599;28;20740;-71
2022/03/01 10:57:01;;;;;;;20.88;8.20;;;;;;;8.39;nan;99739.19;10568321;27;20044;-72
2022/03/01 11:02:04;;;;;;;20.88;9.13;;;;;;;8.27;nan;99693.00;10568163;28;20121;-72
2022/03/01 11:07:06;;;;;;;20.48;8.57;;;;;;;8.34;nan;99717.38;10567879;28;20063;-72
2022/03/01 11:12:09;;;;;;;15.68;8.05;;;;;;;8.48;nan;99774.91;10559569;28;20059;-72
2022/03/01 11:17:20;;;;;;;16.20;8.07;;;;;;;8.51;nan;99782.78;10566560;27;20044;-72
2022/03/01 11:22:27;;;;;;;20.30;8.50;;;;;;;8.35;nan;99726.06;10560015;28;20661;-72
2022/03/01 11:27:29;;;;;;;21.65;8.63;;;;;;;8.09;nan;99615.47;10566093;28;20058;-72
2022/03/01 11:32:39;;;;;;;20.10;8.75;;;;;;;8.07;nan;99603.28;10566116;27;20120;-72
2022/03/01 11:37:43;;;;;;;19.58;8.93;;;;;;;7.97;nan;99566.72;10565432;27;20044;-72
2022/03/01 11:42:48;;;;;;;19.17;8.55;;;;;;;7.89;nan;99539.69;10565101;28;20048;-72
2022/03/01 11:47:50;;;;;;;18.73;8.32;;;;;;;8.04;nan;99588.47;10559273;27;20070;-72
2022/03/01 11:53:06;;;;;;;21.58;8.45;;;;;;;8.19;nan;99652.06;10563207;28;20075;-72
2022/03/01 11:58:12;;;;;;;18.17;8.32;;;;;;;8.47;nan;99767.97;10563785;28;20055;-72
2022/03/01 12:03:20;;;;;;;21.83;8.82;;;;;;;9.53;nan;100189.50;10565842;28;20044;-72
2022/03/01 12:08:22;;;;;;;18.08;8.60;;;;;;;9.79;nan;100290.88;10558842;28;20046;-72
2022/03/01 12:13:40;;;;;;;18.45;7.65;;;;;;;9.86;nan;100323.22;10564361;28;20145;-72
2022/03/01 12:18:43;;;;;;;23.23;9.05;;;;;;;9.69;nan;100255.91;10564134;27;20086;-72
2022/03/01 12:23:46;;;;;;;21.23;8.02;;;;;;;10.27;nan;100482.47;10554473;27;20044;-73
2022/03/01 12:28:51;;;;;;;18.13;8.32;;;;;;;10.30;nan;100497.31;10555429;28;20051;-72
2022/03/01 12:33:59;;;;;;;17.83;8.40;;;;;;;9.95;nan;100352.09;10563315;28;20043;-72
2022/03/01 12:39:08;;;;;;;15.75;8.40;;;;;;;10.04;nan;100385.34;10556155;28;20128;-73
2022/03/01 12:44:15;;;;;;;20.75;9.30;;;;;;;10.32;nan;100491.25;10552521;28;20092;-72
2022/03/01 12:49:17;;;;;;;16.98;7.88;;;;;;;10.37;nan;100521.03;10562526;28;20055;-72
2022/03/01 12:54:27;;;;;;;18.95;9.10;;;;;;;10.11;nan;100415.09;10555098;28;20051;-71
2022/03/01 12:59:32;;;;;;;18.63;8.90;;;;;;;9.93;nan;100345.09;10555301;28;20047;-72
2022/03/01 13:04:36;;;;;;;21.48;8.88;;;;;;;9.74;nan;100271.63;10543884;28;20639;-72
2022/03/01 13:09:37;;;;;;;19.58;8.88;;;;;;;9.71;nan;100250.69;10561310;28;20040;-72
2022/03/01 13:14:39;;;;;;;20.80;8.63;;;;;;;9.87;nan;100309.28;10520886;28;20393;-72
2022/03/01 13:19:44;;;;;;;19.63;8.50;;;;;;;9.79;nan;100279.53;10526271;28;20406;-72
2022/03/01 13:24:51;;;;;;;21.52;8.57;;;;;;;9.90;nan;100330.25;10527601;28;20531;-72
2022/03/01 13:29:53;;;;;;;20.05;9.35;;;;;;;9.98;nan;100357.34;10538598;28;20408;-72
2022/03/01 13:35:05;;;;;;;16.30;8.35;;;;;;;10.30;nan;100479.88;10543825;28;20048;-72
2022/03/01 13:40:08;;;;;;;21.70;8.60;;;;;;;10.28;nan;100471.13;10552647;28;20047;-72
2022/03/01 13:45:11;;;;;;;19.50;9.02;;;;;;;10.09;nan;100396.75;10551851;28;21525;-72
2022/03/01 13:50:17;;;;;;;18.58;8.43;;;;;;;9.63;nan;100207.91;10532427;27;20496;-72
2022/03/01 13:55:24;;;;;;;17.98;8.32;;;;;;;9.59;nan;100193.03;10573509;28;20557;-72
2022/03/01 14:00:37;;;;;;;17.88;8.63;;;;;;;9.43;nan;100132.75;10574234;28;20044;-72
2022/03/01 14:05:45;;;;;;;18.85;8.50;;;;;;;9.45;nan;100127.56;10575727;28;20038;-72
2022/03/01 14:10:52;;;;;;;21.70;8.73;;;;;;;9.33;nan;100087.34;10566564;28;20048;-72
2022/03/01 14:16:06;;;;;;;20.33;8.60;;;;;;;9.50;nan;100157.22;10565203;28;20401;-72
2022/03/01 14:21:12;;;;;;;18.27;8.93;;;;;;;9.34;nan;100085.63;10563860;28;20087;-72
2022/03/01 14:26:13;;;;;;;21.73;9.57;;;;;;;9.47;nan;100138.88;10563946;28;20054;-71
2022/03/01 14:31:15;;;;;;;20.23;8.65;;;;;;;9.34;nan;100094.34;10542857;28;20044;-72
2022/03/01 14:36:18;;;;;;;19.75;8.88;;;;;;;9.36;nan;100092.59;10569664;28;20047;-71
2022/03/01 14:41:22;;;;;;;20.52;8.55;;;;;;;9.30;nan;100068.16;10562417;27;20056;-71
2022/03/01 14:46:24;;;;;;;18.55;8.40;;;;;;;9.41;nan;100118.78;10568988;28;20098;-71
2022/03/01 14:51:27;;;;;;;20.75;9.63;;;;;;;9.40;nan;100103.09;10567837;28;20140;-72
2022/03/01 14:56:28;;;;;;;18.67;9.07;;;;;;;9.46;nan;100124.09;10568594;27;20048;-72
2022/03/01 15:01:31;;;;;;;24.48;9.98;;;;;;;9.48;nan;100132.81;10568999;27;20133;-72
2022/03/01 15:06:33;;;;;;;23.35;8.82;;;;;;;9.33;nan;100081.25;10568746;28;20067;-71
2022/03/01 15:11:36;;;;;;;22.40;9.85;;;;;;;9.32;nan;100069.94;10567859;28;20040;-73
2022/03/01 15:16:38;;;;;;;22.20;9.85;;;;;;;9.17;nan;100009.66;10561509;28;20040;-73
2022/03/01 15:21:40;;;;;;;22.10;8.98;;;;;;;9.09;nan;99974.78;10561333;28;20077;-72
2022/03/01 15:26:41;;;;;;;28.08;11.45;;;;;;;8.95;nan;99928.50;10567768;28;20047;-72
2022/03/01 15:31:43;;;;;;;19.55;8.80;;;;;;;8.85;nan;99884.88;10567496;28;20607;-72
2022/03/01 15:36:46;;;;;;;20.45;9.55;;;;;;;8.75;nan;99841.28;10567519;28;20040;-72
2022/03/01 15:41:48;;;;;;;23.83;10.45;;;;;;;8.72;nan;99836.03;10560486;28;20052;-72
2022/03/01 15:46:49;;;;;;;26.92;12.80;;;;;;;8.59;nan;99775.03;10567456;28;20050;-71
2022/03/01 15:51:51;;;;;;;24.33;10.70;;;;;;;8.46;nan;99725.34;10563891;28;20083;-71
2022/03/01 15:56:53;;;;;;;25.58;11.93;;;;;;;8.42;nan;99714.84;10563093;28;20048;-72
2022/03/01 16:01:55;;;;;;;48.63;21.95;;;;;;;8.37;nan;99690.47;10558563;28;20048;-71
2022/03/01 16:06:57;;;;;;;22.13;10.05;;;;;;;8.28;nan;99660.81;10566390;28;20081;-71
2022/03/01 16:12:00;;;;;;;31.23;12.90;;;;;;;8.25;nan;99647.75;10563811;28;20058;-72
2022/03/01 16:17:05;;;;;;;32.58;13.45;;;;;;;8.23;nan;99639.03;10565838;28;20082;-72
2022/03/01 16:22:10;;;;;;;29.73;13.57;;;;;;;8.07;nan;99565.03;10565268;28;20080;-72
2022/03/01 16:27:13;;;;;;;23.55;9.80;;;;;;;7.88;nan;99490.16;10555506;28;20043;-72
2022/03/01 16:32:15;;;;;;;20.85;9.85;;;;;;;7.80;nan;99453.63;10562636;28;20105;-72
2022/03/01 16:37:17;;;;;;;26.27;10.73;;;;;;;7.63;nan;99388.38;10564438;27;20752;-72
2022/03/01 16:42:19;;;;;;;25.17;10.75;;;;;;;7.56;nan;99363.16;10564332;28;20105;-72
2022/03/01 16:47:21;;;;;;;34.15;12.18;;;;;;;7.46;nan;99332.69;10565101;27;20566;-72
2022/03/01 16:52:23;;;;;;;101.68;26.83;;;;;;;7.32;nan;99268.38;10553839;28;20129;-71
2022/03/01 16:57:24;;;;;;;50.03;16.70;;;;;;;7.24;nan;99234.47;10564235;28;20071;-72
2022/03/01 17:02:26;;;;;;;23.92;10.50;;;;;;;7.11;nan;99196.22;10563823;28;20044;-72
2022/03/01 17:07:28;;;;;;;25.05;10.35;;;;;;;7.00;nan;99149.31;10563806;27;20075;-71
2022/03/01 17:12:30;;;;;;;57.55;18.88;;;;;;;6.94;nan;99117.19;10563429;28;20432;-71
2022/03/01 17:17:35;;;;;;;25.15;11.02;;;;;;;6.87;nan;99096.31;10572024;28;20048;-72
2022/03/01 17:22:38;;;;;;;24.85;10.40;;;;;;;6.79;nan;99064.22;10565070;28;20047;-71
2022/03/01 17:27:40;;;;;;;25.77;11.48;;;;;;;6.70;nan;99031.22;10570788;28;20058;-71
2022/03/01 17:32:41;;;;;;;23.58;11.70;;;;;;;6.62;nan;98996.53;10571495;28;20043;-70
2022/03/01 17:37:43;;;;;;;25.80;11.55;;;;;;;6.55;nan;98968.75;10572164;27;20058;-72
2022/03/01 17:42:45;;;;;;;26.52;12.35;;;;;;;6.48;nan;98944.44;10571617;28;20050;-71
2022/03/01 17:47:50;;;;;;;24.77;10.90;;;;;;;6.37;nan;98902.78;10565150;28;20071;-71
2022/03/01 17:52:52;;;;;;;28.30;12.02;;;;;;;6.30;nan;98868.97;10564270;28;20729;-71
2022/03/01 17:57:54;;;;;;;31.17;12.20;;;;;;;6.23;nan;98846.41;10571317;28;20043;-71
2022/03/01 18:02:55;;;;;;;28.40;12.88;;;;;;;6.19;nan;98828.22;10552817;28;20055;-72
2022/03/01 18:07:58;;;;;;;25.45;11.57;;;;;;;6.13;nan;98807.41;10564948;27;20144;-72
2022/03/01 18:13:00;;;;;;;27.13;11.40;;;;;;;6.09;nan;98795.25;10559200;27;20044;-71
2022/03/01 18:18:02;;;;;;;21.33;10.15;;;;;;;6.09;nan;98791.81;10564600;27;20047;-71
2022/03/01 18:23:05;;;;;;;24.48;11.05;;;;;;;6.00;nan;98762.34;10563262;28;20504;-71
2022/03/01 18:28:24;;;;;;;25.80;11.57;;;;;;;5.92;nan;98730.22;10564659;28;20067;-71
2022/03/01 18:33:26;;;;;;;23.60;11.70;;;;;;;5.89;nan;98722.44;10569157;28;20048;-71
2022/03/01 18:38:29;;;;;;;26.05;11.82;;;;;;;5.80;nan;98675.66;10551795;28;20154;-72
2022/03/01 18:43:31;;;;;;;26.92;11.98;;;;;;;5.70;nan;98646.19;10561071;28;20112;-72
2022/03/01 18:48:33;;;;;;;32.53;14.18;;;;;;;5.63;nan;98621.06;10565336;28;20403;-71
2022/03/01 18:53:35;;;;;;;26.80;12.35;;;;;;;5.57;nan;98593.38;10565649;27;20052;-71
2022/03/01 18:58:38;;;;;;;28.40;12.77;;;;;;;5.56;nan;98594.22;10561660;28;20515;-71
2022/03/01 19:03:43;;;;;;;28.00;13.00;;;;;;;5.51;nan;98572.59;10562214;28;20054;-71
2022/03/01 19:08:47;;;;;;;29.55;12.75;;;;;;;5.42;nan;98544.00;10565632;27;20043;-71
2022/03/01 19:13:50;;;;;;;28.02;12.98;;;;;;;5.36;nan;98512.84;10561255;28;20055;-71
2022/03/01 19:18:51;;;;;;;30.60;13.50;;;;;;;5.32;nan;98504.22;10556483;27;20043;-71
2022/03/01 19:23:53;;;;;;;27.13;12.35;;;;;;;5.30;nan;98498.16;10564670;28;20086;-71
2022/03/01 19:28:56;;;;;;;31.33;12.27;;;;;;;5.29;nan;98492.09;10555698;28;20046;-72
2022/03/01 19:33:58;;;;;;;38.78;16.02;;;;;;;5.24;nan;98469.59;10564745;28;20055;-71
2022/03/01 19:38:59;;;;;;;27.83;13.05;;;;;;;5.21;nan;98462.69;10555369;28;20051;-71
2022/03/01 19:44:01;;;;;;;68.18;22.83;;;;;;;5.15;nan;98431.53;10562474;28;20715;-71
2022/03/01 19:49:03;;;;;;;32.10;14.98;;;;;;;5.13;nan;98434.16;10549337;27;20040;-71
2022/03/01 19:54:06;;;;;;;32.05;13.95;;;;;;;5.10;nan;98423.75;10543723;28;20055;-71
2022/03/01 19:59:08;;;;;;;26.95;13.68;;;;;;;5.03;nan;98396.06;10548363;27;20038;-71
2022/03/01 20:04:09;;;;;;;28.60;14.32;;;;;;;4.99;nan;98381.38;10565605;28;20673;-71
2022/03/01 20:09:11;;;;;;;33.88;14.10;;;;;;;4.94;nan;98360.63;10544654;28;20408;-71
2022/03/01 20:14:13;;;;;;;27.13;11.40;;;;;;;4.94;nan;98359.75;10553727;28;20436;-71
2022/03/01 20:19:16;;;;;;;27.90;12.10;;;;;;;4.96;nan;98363.22;10562980;28;20066;-71
2022/03/01 20:24:17;;;;;;;26.48;12.73;;;;;;;4.92;nan;98351.09;10557711;27;20493;-71
2022/03/01 20:29:19;;;;;;;25.90;12.55;;;;;;;4.85;nan;98328.63;10557278;28;20100;-71
2022/03/01 20:34:20;;;;;;;27.00;11.52;;;;;;;4.77;nan;98303.56;10563343;27;20593;-71
2022/03/01 20:39:23;;;;;;;27.65;11.48;;;;;;;4.72;nan;98281.09;10562323;28;20483;-71
2022/03/01 20:44:25;;;;;;;28.02;11.82;;;;;;;4.70;nan;98273.31;10561044;28;20051;-71
2022/03/01 20:49:31;;;;;;;28.65;11.38;;;;;;;4.67;nan;98264.66;10548803;28;20047;-71
2022/03/01 20:54:33;;;;;;;26.10;12.40;;;;;;;4.59;nan;98244.81;10553940;27;20052;-71
2022/03/01 20:59:35;;;;;;;28.35;12.80;;;;;;;4.59;nan;98236.13;10551124;27;20047;-72
2022/03/01 21:04:36;;;;;;;31.33;12.63;;;;;;;4.52;nan;98211.06;10563580;28;20070;-71
2022/03/01 21:09:38;;;;;;;27.02;12.63;;;;;;;4.49;nan;98200.72;10562762;28;20045;-71
2022/03/01 21:14:39;;;;;;;26.15;11.65;;;;;;;4.46;nan;98186.06;10563096;28;20044;-71
2022/03/01 21:19:43;;;;;;;29.42;13.57;;;;;;;4.42;nan;98179.13;10562675;28;20056;-71
2022/03/01 21:24:45;;;;;;;28.00;13.05;;;;;;;4.46;nan;98185.16;10563497;28;20062;-71
2022/03/01 21:29:46;;;;;;;28.65;13.10;;;;;;;4.38;nan;98165.34;10562696;28;20040;-71
2022/03/01 21:34:48;;;;;;;27.25;12.38;;;;;;;4.34;nan;98145.47;10562810;28;20043;-71
2022/03/01 21:39:50;;;;;;;24.75;11.15;;;;;;;4.31;nan;98135.09;10555058;28;20042;-71
2022/03/01 21:44:52;;;;;;;24.35;10.75;;;;;;;4.25;nan;98114.38;10562723;28;20101;-71
2022/03/01 21:49:56;;;;;;;23.27;10.50;;;;;;;4.22;nan;98104.03;10562468;28;20130;-71
2022/03/01 21:54:58;;;;;;;25.58;10.18;;;;;;;4.20;nan;98095.38;10563116;28;20047;-71
2022/03/01 21:59:59;;;;;;;25.65;11.15;;;;;;;4.18;nan;98086.75;10561184;28;20066;-71
2022/03/01 22:05:02;;;;;;;24.70;10.73;;;;;;;4.17;nan;98085.00;10571576;28;20050;-71
2022/03/01 22:10:06;;;;;;;23.70;9.85;;;;;;;4.13;nan;98072.91;10569197;28;20744;-71
2022/03/01 22:15:10;;;;;;;23.30;10.88;;;;;;;4.07;nan;98048.75;10569504;27;20487;-71
2022/03/01 22:20:12;;;;;;;28.83;10.95;;;;;;;4.06;nan;98052.22;10568041;28;20047;-71
2022/03/01 22:25:15;;;;;;;26.83;11.45;;;;;;;4.04;nan;98042.75;10570578;28;20066;-71
2022/03/01 22:30:18;;;;;;;27.17;11.80;;;;;;;4.01;nan;98028.06;10569752;28;20065;-71
2022/03/01 22:35:21;;;;;;;28.63;12.57;;;;;;;3.97;nan;98015.97;10568934;28;20047;-71
2022/03/01 22:40:22;;;;;;;27.08;12.32;;;;;;;3.95;nan;98006.47;10567116;28;20519;-71
2022/03/01 22:45:25;;;;;;;28.38;11.68;;;;;;;3.92;nan;97993.53;10568671;28;20118;-71
2022/03/01 22:50:31;;;;;;;24.95;11.75;;;;;;;3.90;nan;97993.53;10567996;28;20071;-71
2022/03/01 22:55:34;;;;;;;29.92;12.73;;;;;;;3.93;nan;98009.06;10562120;28;20039;-71
2022/03/01 23:00:35;;;;;;;30.33;12.63;;;;;;;3.87;nan;97978.88;10567814;28;20050;-71
2022/03/01 23:05:39;;;;;;;28.35;12.05;;;;;;;3.85;nan;97977.16;10561342;28;20557;-71
2022/03/01 23:10:40;;;;;;;25.42;12.07;;;;;;;3.83;nan;97971.13;10566889;28;20565;-71
2022/03/01 23:15:42;;;;;;;31.85;12.60;;;;;;;3.85;nan;97979.75;10566986;28;20044;-71
2022/03/01 23:20:44;;;;;;;35.30;12.15;;;;;;;3.82;nan;97970.25;10566415;28;20063;-71
2022/03/01 23:25:46;;;;;;;27.58;12.02;;;;;;;3.78;nan;97949.53;10567185;28;20067;-71
2022/03/01 23:30:50;;;;;;;28.65;12.13;;;;;;;3.75;nan;97940.03;10565361;28;20070;-71
2022/03/01 23:35:51;;;;;;;29.25;12.70;;;;;;;3.72;nan;97940.94;10567125;28;20070;-71
2022/03/01 23:40:53;;;;;;;28.65;11.52;;;;;;;3.75;nan;97937.47;10565667;28;20040;-71
2022/03/01 23:45:59;;;;;;;25.42;11.88;;;;;;;3.75;nan;97944.38;10566266;28;20042;-71
2022/03/01 23:51:01;;;;;;;28.42;12.40;;;;;;;3.72;nan;97940.94;10565226;28;20067;-71
2022/03/01 23:56:04;;;;;;;32.17;12.55;;;;;;;3.72;nan;97940.94;10565788;28;20036;-71
